EWR weather

Newark Liberty International Airport
Newark, New Jersey, United States

Public forecast

Using degrees Fahrenheit for public forecast. Weather courtesy of forecast.io.

Current aviation weather report (METAR) for Newark Liberty International Airport

Retrieved 2019/10/23 00:11 UTC (46 minutes ago):

KEWR 230011Z 10012G18KT 3SM RA BR OVC005 16/15 A2986 RMK AO2 P0008 T01560150

Aviation forecast (TAF) for Newark Liberty International Airport

Retrieved 2019-10-23 00:34 UTC (23 minutes ago):

TAF KEWR 222332Z 2300/2406 10011G17KT 2SM -RA OVC004 TEMPO 2303/2307 13006KT 1SM BR OVC003 FM230700 29008KT 4SM -RA BR OVC006 FM230900 30010KT 5SM BR BKN025 OVC035 FM231200 29012G17KT P6SM SCT025 SCT250 FM231500 28015G23KT P6SM FEW250 FM232200 27011KT P6SM FEW250